createdAt,value
2023-01-27T00:00:04.666Z,98.34
2023-01-27T00:01:04.293Z,98.55
2023-01-27T00:02:04.255Z,98.75
2023-01-27T00:03:04.663Z,98.86
2023-01-27T00:04:04.725Z,99.27
2023-01-27T00:05:04.054Z,99.07
2023-01-27T00:06:04.844Z,98.86
2023-01-27T00:07:03.788Z,98.55
2023-01-27T00:08:03.611Z,98.34
2023-01-27T00:09:03.916Z,98.55
2023-01-27T00:10:03.993Z,98.75
2023-01-27T00:11:03.626Z,98.34
2023-01-27T00:11:13.876Z,98.40
2023-01-27T00:12:03.010Z,98.30
2023-01-27T00:13:03.481Z,97.88
2023-01-27T00:14:03.362Z,98.24
2023-01-27T00:15:03.105Z,98.34
2023-01-27T00:16:03.404Z,98.30
2023-01-27T00:17:03.675Z,98.40
2023-01-27T00:18:03.807Z,97.99
2023-01-27T00:19:03.534Z,97.78
2023-01-27T00:20:04.100Z,97.99
2023-01-27T00:21:03.244Z,97.88
2023-01-27T00:22:02.873Z,97.67
2023-01-27T00:23:02.830Z,97.47
2023-01-27T00:24:03.266Z,97.16
2023-01-27T00:25:02.609Z,97.47
2023-01-27T00:26:03.171Z,97.99
2023-01-27T00:27:03.241Z,98.09
2023-01-27T00:28:03.415Z,97.99
2023-01-27T00:29:03.419Z,97.88
2023-01-27T00:30:03.766Z,97.88
2023-01-27T00:31:03.902Z,97.78
2023-01-27T00:32:02.798Z,97.88
2023-01-27T00:33:03.120Z,97.78
2023-01-27T00:34:02.755Z,97.78
2023-01-27T00:35:02.858Z,97.57
2023-01-27T00:36:02.782Z,97.47
2023-01-27T00:37:03.138Z,97.57
2023-01-27T00:38:03.543Z,97.99
2023-01-27T00:39:03.641Z,97.93
2023-01-27T00:40:03.145Z,98.24
2023-01-27T00:41:03.115Z,98.55
2023-01-27T00:42:02.600Z,98.65
2023-01-27T00:43:03.142Z,98.55
2023-01-27T00:44:02.546Z,98.50
2023-01-27T00:45:02.567Z,98.40
2023-01-27T00:46:03.088Z,98.09
2023-01-27T00:47:03.356Z,97.99
2023-01-27T00:48:03.324Z,98.09
2023-01-27T00:49:03.266Z,98.30
2023-01-27T00:50:02.952Z,97.88
2023-01-27T00:51:03.077Z,98.09
2023-01-27T00:52:02.855Z,97.88
2023-01-27T00:53:03.036Z,97.88
2023-01-27T00:54:02.537Z,97.99
2023-01-27T00:55:02.813Z,97.99
2023-01-27T00:56:02.638Z,98.19
2023-01-27T00:57:03.207Z,98.50
2023-01-27T00:58:03.143Z,98.40
2023-01-27T00:59:03.515Z,98.09
2023-01-27T01:00:03.469Z,98.09
2023-01-27T01:01:03.507Z,98.09
2023-01-27T01:02:03.132Z,98.30
2023-01-27T01:03:03.108Z,98.61
2023-01-27T01:04:02.694Z,98.40
2023-01-27T01:05:02.640Z,98.09
2023-01-27T01:06:02.764Z,98.09
2023-01-27T01:07:02.976Z,98.09
2023-01-27T01:08:03.056Z,97.99
2023-01-27T01:09:03.325Z,97.57
2023-01-27T01:10:02.676Z,97.47
2023-01-27T01:11:03.085Z,97.47
2023-01-27T01:12:03.306Z,97.36
2023-01-27T01:13:03.034Z,97.47
2023-01-27T01:14:03.083Z,97.22
2023-01-27T01:15:03.127Z,97.16
2023-01-27T01:16:02.989Z,97.26
2023-01-27T01:17:02.534Z,97.57
2023-01-27T01:18:02.602Z,97.57
2023-01-27T01:19:02.333Z,97.67
2023-01-27T01:20:02.756Z,97.32
2023-01-27T01:21:02.974Z,97.16
2023-01-27T01:22:04.893Z,97.16
2023-01-27T01:23:03.551Z,97.36
2023-01-27T01:24:03.398Z,97.67
2023-01-27T01:25:03.422Z,97.57
2023-01-27T01:26:02.962Z,97.47
2023-01-27T01:27:02.224Z,97.57
2023-01-27T01:28:02.636Z,97.36
2023-01-27T01:29:02.196Z,97.06
2023-01-27T01:30:02.264Z,97.26
2023-01-27T01:31:02.733Z,97.57
2023-01-27T01:32:03.002Z,98.34
2023-01-27T01:33:02.765Z,98.65
2023-01-27T01:34:02.897Z,98.61
2023-01-27T01:35:03.148Z,98.19
2023-01-27T01:36:03.297Z,98.34
2023-01-27T01:37:03.321Z,98.75
2023-01-27T01:38:03.158Z,98.86
2023-01-27T01:39:02.920Z,98.65
2023-01-27T01:40:03.019Z,98.75
2023-01-27T01:41:03.145Z,99.32
2023-01-27T01:42:03.393Z,99.43
2023-01-27T01:43:03.178Z,99.58
2023-01-27T01:44:03.055Z,99.48
2023-01-27T01:45:03.560Z,99.17
2023-01-27T01:46:03.393Z,99.43
2023-01-27T01:47:02.732Z,99.73
2023-01-27T01:48:02.805Z,99.52
2023-01-27T01:49:02.755Z,99.32
2023-01-27T01:50:02.483Z,99.84
2023-01-27T01:51:02.247Z,99.99
2023-01-27T01:52:02.794Z,99.79
2023-01-27T01:53:02.912Z,99.52
2023-01-27T01:54:02.663Z,99.84
2023-01-27T01:55:02.497Z,99.84
2023-01-27T01:56:02.874Z,99.99
2023-01-27T01:57:02.468Z,99.99
2023-01-27T01:58:02.282Z,99.99
2023-01-27T01:59:02.481Z,99.99
2023-01-27T02:00:02.405Z,99.99
2023-01-27T02:01:02.242Z,99.99
2023-01-27T02:02:02.958Z,99.79
2023-01-27T02:03:02.796Z,99.48
2023-01-27T02:04:02.529Z,99.48
2023-01-27T02:05:02.495Z,99.27
2023-01-27T02:06:02.680Z,99.17
2023-01-27T02:07:02.659Z,99.58
2023-01-27T02:08:03.155Z,99.38
2023-01-27T02:09:02.780Z,99.27
2023-01-27T02:10:02.953Z,98.96
2023-01-27T02:11:03.102Z,98.86
2023-01-27T02:12:03.084Z,98.96
2023-01-27T02:13:03.256Z,99.07
2023-01-27T02:14:02.642Z,98.65
2023-01-27T02:15:02.845Z,98.96
2023-01-27T02:16:02.670Z,98.75
2023-01-27T02:17:02.853Z,98.86
2023-01-27T02:18:02.948Z,98.86
2023-01-27T02:19:02.835Z,98.96
2023-01-27T02:20:02.728Z,98.86
2023-01-27T02:21:03.258Z,98.86
2023-01-27T02:22:03.661Z,98.86
2023-01-27T02:23:03.121Z,98.71
2023-01-27T02:24:03.096Z,98.61
2023-01-27T02:25:03.343Z,98.30
2023-01-27T02:26:03.494Z,98.19
2023-01-27T02:27:02.660Z,98.30
2023-01-27T02:28:03.151Z,98.19
2023-01-27T02:29:02.528Z,98.30
2023-01-27T02:30:02.925Z,97.78
2023-01-27T02:31:03.114Z,97.67
2023-01-27T02:32:02.524Z,97.47
2023-01-27T02:33:02.981Z,97.78
2023-01-27T02:34:02.761Z,97.78
2023-01-27T02:35:02.607Z,97.88
2023-01-27T02:36:03.186Z,97.78
2023-01-27T02:37:03.146Z,97.67
2023-01-27T02:38:03.055Z,97.47
2023-01-27T02:39:03.047Z,97.26
2023-01-27T02:40:03.443Z,97.67
2023-01-27T02:41:03.297Z,98.09
2023-01-27T02:42:02.719Z,97.88
2023-01-27T02:43:02.744Z,97.99
2023-01-27T02:44:03.043Z,98.09
2023-01-27T02:45:02.603Z,97.78
2023-01-27T02:46:02.946Z,97.88
2023-01-27T02:47:03.346Z,97.47
2023-01-27T02:48:03.473Z,97.57
2023-01-27T02:49:03.126Z,97.78
2023-01-27T02:50:03.215Z,97.67
2023-01-27T02:51:03.151Z,97.67
2023-01-27T02:52:02.493Z,97.78
2023-01-27T02:53:02.105Z,97.78
2023-01-27T02:54:02.412Z,97.47
2023-01-27T02:55:02.354Z,97.47
2023-01-27T02:56:02.090Z,97.72
2023-01-27T02:57:02.658Z,98.09
2023-01-27T02:58:02.281Z,97.78
2023-01-27T02:59:02.756Z,98.19
2023-01-27T03:00:02.550Z,98.30
2023-01-27T03:01:02.469Z,97.78
2023-01-27T03:02:02.968Z,97.57
2023-01-27T03:03:02.358Z,97.57
2023-01-27T03:04:02.919Z,97.36
2023-01-27T03:05:02.562Z,97.47
2023-01-27T03:06:02.383Z,97.26
2023-01-27T03:07:03.423Z,97.26
2023-01-27T03:08:03.037Z,96.85
2023-01-27T03:09:03.067Z,97.16
2023-01-27T03:10:03.178Z,97.26
2023-01-27T03:11:03.269Z,97.22
2023-01-27T03:12:03.568Z,97.06
2023-01-27T03:13:03.520Z,97.06
2023-01-27T03:14:03.365Z,97.22
2023-01-27T03:15:03.165Z,96.91
2023-01-27T03:16:03.593Z,96.49
2023-01-27T03:17:02.959Z,96.39
2023-01-27T03:18:02.878Z,96.49
2023-01-27T03:19:02.461Z,96.39
2023-01-27T03:20:02.556Z,96.29
2023-01-27T03:21:02.793Z,96.59
2023-01-27T03:22:03.308Z,96.29
2023-01-27T03:23:02.730Z,96.08
2023-01-27T03:24:03.123Z,96.19
2023-01-27T03:25:02.864Z,95.98
2023-01-27T03:26:03.297Z,95.94
2023-01-27T03:27:03.298Z,95.83
2023-01-27T03:28:02.934Z,95.77
2023-01-27T03:29:03.040Z,95.87
2023-01-27T03:30:02.976Z,95.98
2023-01-27T03:31:03.417Z,96.19
2023-01-27T03:32:03.378Z,96.08
2023-01-27T03:33:03.365Z,96.19
2023-01-27T03:34:03.327Z,96.19
2023-01-27T03:35:03.431Z,96.39
2023-01-27T03:36:02.964Z,96.39
2023-01-27T03:37:02.845Z,96.29
2023-01-27T03:38:02.609Z,96.29
2023-01-27T03:39:02.915Z,96.39
2023-01-27T03:40:02.551Z,96.49
2023-01-27T03:41:02.478Z,96.59
2023-01-27T03:42:03.547Z,96.59
2023-01-27T03:43:03.046Z,96.80
2023-01-27T03:44:03.304Z,96.39
2023-01-27T03:45:03.440Z,96.59
2023-01-27T03:46:03.640Z,96.91
2023-01-27T03:47:02.378Z,96.59
2023-01-27T03:48:02.543Z,96.59
2023-01-27T03:49:02.446Z,96.85
2023-01-27T03:50:02.703Z,97.01
2023-01-27T03:51:02.620Z,96.80
2023-01-27T03:52:02.745Z,96.70
2023-01-27T03:53:03.550Z,96.80
2023-01-27T03:54:03.255Z,96.70
2023-01-27T03:55:03.022Z,96.59
2023-01-27T03:56:02.627Z,96.59
2023-01-27T03:57:03.012Z,96.70
2023-01-27T03:58:03.009Z,96.39
2023-01-27T03:59:02.689Z,96.39
2023-01-27T04:00:02.715Z,96.49
2023-01-27T04:01:02.791Z,96.59
2023-01-27T04:02:02.613Z,96.70
2023-01-27T04:03:02.637Z,96.70
2023-01-27T04:04:02.508Z,96.49
2023-01-27T04:05:02.792Z,96.08
2023-01-27T04:06:02.460Z,96.39
2023-01-27T04:07:02.486Z,96.49
2023-01-27T04:08:01.878Z,96.59
2023-01-27T04:09:02.465Z,96.39
2023-01-27T04:10:01.972Z,96.49
2023-01-27T04:11:02.280Z,96.49
2023-01-27T04:12:02.188Z,96.29
2023-01-27T04:13:02.469Z,96.39
2023-01-27T04:14:02.297Z,96.59
2023-01-27T04:15:02.136Z,96.39
2023-01-27T04:16:01.963Z,96.39
2023-01-27T04:17:02.109Z,96.29
2023-01-27T04:18:02.457Z,96.08
2023-01-27T04:19:01.934Z,96.19
2023-01-27T04:20:02.471Z,96.19
2023-01-27T04:21:02.384Z,96.08
2023-01-27T04:22:02.122Z,95.98
2023-01-27T04:23:02.174Z,96.29
2023-01-27T04:24:02.713Z,96.08
2023-01-27T04:25:02.408Z,95.98
2023-01-27T04:26:02.578Z,95.77
2023-01-27T04:27:02.256Z,95.87
2023-01-27T04:28:02.212Z,95.77
2023-01-27T04:29:02.683Z,95.67
2023-01-27T04:30:02.847Z,95.46
2023-01-27T04:31:02.424Z,95.67
2023-01-27T04:32:02.071Z,95.71
2023-01-27T04:33:01.883Z,95.92
2023-01-27T04:34:01.858Z,95.92
2023-01-27T04:35:01.942Z,96.12
2023-01-27T04:36:01.894Z,95.81
2023-01-27T04:37:02.689Z,95.71
2023-01-27T04:38:02.294Z,96.23
2023-01-27T04:39:02.806Z,96.54
2023-01-27T04:40:02.678Z,96.54
2023-01-27T04:41:02.487Z,96.64
2023-01-27T04:42:02.198Z,96.54
2023-01-27T04:43:01.638Z,96.54
2023-01-27T04:44:01.597Z,96.33
2023-01-27T04:45:01.680Z,96.44
2023-01-27T04:46:02.138Z,96.12
2023-01-27T04:47:02.746Z,96.33
2023-01-27T04:48:02.331Z,96.33
2023-01-27T04:49:02.836Z,96.79
2023-01-27T04:50:02.891Z,97.10
2023-01-27T04:51:02.598Z,97.20
2023-01-27T04:52:01.975Z,97.00
2023-01-27T04:53:02.063Z,97.52
2023-01-27T04:54:01.903Z,97.62
2023-01-27T04:55:01.807Z,97.10
2023-01-27T04:56:02.277Z,97.31
2023-01-27T04:57:02.219Z,97.72
2023-01-27T04:58:01.991Z,97.52
2023-01-27T04:59:02.415Z,97.62
2023-01-27T05:00:02.222Z,97.41
2023-01-27T05:01:02.232Z,97.41
2023-01-27T05:02:02.786Z,97.10
2023-01-27T05:03:02.744Z,97.41
2023-01-27T05:04:02.635Z,97.41
2023-01-27T05:05:02.998Z,97.62
2023-01-27T05:06:02.432Z,97.62
2023-01-27T05:07:02.946Z,97.52
2023-01-27T05:08:02.850Z,97.83
2023-01-27T05:09:02.861Z,97.72
2023-01-27T05:10:02.983Z,97.72
2023-01-27T05:11:03.053Z,97.41
2023-01-27T05:12:02.662Z,97.62
2023-01-27T05:13:02.382Z,97.72
2023-01-27T05:14:02.792Z,97.62
2023-01-27T05:15:02.209Z,97.83
2023-01-27T05:16:02.329Z,97.97
2023-01-27T05:17:02.570Z,98.18
2023-01-27T05:18:02.724Z,98.70
2023-01-27T05:19:02.927Z,98.55
2023-01-27T05:20:02.517Z,98.24
2023-01-27T05:21:02.276Z,97.83
2023-01-27T05:22:02.957Z,97.83
2023-01-27T05:23:02.390Z,97.62
2023-01-27T05:24:02.961Z,97.62
2023-01-27T05:25:02.548Z,97.93
2023-01-27T05:26:02.496Z,97.93
2023-01-27T05:27:01.868Z,98.03
2023-01-27T05:28:02.465Z,97.72
2023-01-27T05:29:01.985Z,97.52
2023-01-27T05:30:02.495Z,97.31
2023-01-27T05:31:02.441Z,97.31
2023-01-27T05:32:02.406Z,97.20
2023-01-27T05:33:02.313Z,97.20
2023-01-27T05:34:02.702Z,97.31
2023-01-27T05:35:02.578Z,97.31
2023-01-27T05:36:02.425Z,97.52
2023-01-27T05:37:02.897Z,97.41
2023-01-27T05:38:02.707Z,97.41
2023-01-27T05:39:02.695Z,97.31
2023-01-27T05:40:02.527Z,97.20
2023-01-27T05:41:02.576Z,97.62
2023-01-27T05:42:03.172Z,97.83
2023-01-27T05:43:02.936Z,97.72
2023-01-27T05:44:02.918Z,97.41
2023-01-27T05:45:02.723Z,96.89
2023-01-27T05:46:03.218Z,97.31
2023-01-27T05:47:03.211Z,97.41
2023-01-27T05:48:02.800Z,97.52
2023-01-27T05:49:03.238Z,97.31
2023-01-27T05:50:03.035Z,97.35
2023-01-27T05:51:03.226Z,97.62
2023-01-27T05:52:02.388Z,97.72
2023-01-27T05:53:02.686Z,97.72
2023-01-27T05:54:02.662Z,97.72
2023-01-27T05:55:02.367Z,97.41
2023-01-27T05:56:02.583Z,97.20
2023-01-27T05:57:02.953Z,97.10
2023-01-27T05:58:02.917Z,97.20
2023-01-27T05:59:03.053Z,97.00
2023-01-27T06:00:02.928Z,97.10
2023-01-27T06:01:02.471Z,97.10
2023-01-27T06:02:03.710Z,96.79
2023-01-27T06:03:03.563Z,97.00
2023-01-27T06:04:03.496Z,97.00
2023-01-27T06:05:03.317Z,96.75
2023-01-27T06:06:03.168Z,96.79
2023-01-27T06:07:03.732Z,96.85
2023-01-27T06:08:03.268Z,96.64
2023-01-27T06:09:03.764Z,96.95
2023-01-27T06:10:03.222Z,96.85
2023-01-27T06:11:03.257Z,96.44
2023-01-27T06:12:03.229Z,96.79
2023-01-27T06:13:03.124Z,96.79
2023-01-27T06:14:02.825Z,96.79
2023-01-27T06:15:02.715Z,96.89
2023-01-27T06:16:02.994Z,96.89
2023-01-27T06:17:03.049Z,96.89
2023-01-27T06:18:03.143Z,97.20
2023-01-27T06:19:03.110Z,97.00
2023-01-27T06:20:02.977Z,97.20
2023-01-27T06:21:03.431Z,97.31
2023-01-27T06:22:02.938Z,97.41
2023-01-27T06:23:02.894Z,97.06
2023-01-27T06:24:02.800Z,96.85
2023-01-27T06:25:02.983Z,96.85
2023-01-27T06:26:02.780Z,96.58
2023-01-27T06:27:02.819Z,97.00
2023-01-27T06:28:03.249Z,97.41
2023-01-27T06:29:03.077Z,97.62
2023-01-27T06:30:03.006Z,97.62
2023-01-27T06:31:03.324Z,97.41
2023-01-27T06:32:02.838Z,97.00
2023-01-27T06:33:03.384Z,97.31
2023-01-27T06:34:02.538Z,97.52
2023-01-27T06:35:02.456Z,97.52
2023-01-27T06:36:02.761Z,97.47
2023-01-27T06:37:02.438Z,97.10
2023-01-27T06:38:02.941Z,97.06
2023-01-27T06:39:02.635Z,96.85
2023-01-27T06:40:02.523Z,96.64
2023-01-27T06:41:03.044Z,96.44
2023-01-27T06:42:02.745Z,96.54
2023-01-27T06:43:03.056Z,96.75
2023-01-27T06:44:03.125Z,96.85
2023-01-27T06:45:02.747Z,96.64
2023-01-27T06:46:05.510Z,96.33
2023-01-27T06:47:02.301Z,96.33
2023-01-27T06:48:02.264Z,96.23
2023-01-27T06:49:02.163Z,96.33
2023-01-27T06:50:02.055Z,96.12
2023-01-27T06:51:02.545Z,96.33
2023-01-27T06:52:02.778Z,97.00
2023-01-27T06:53:02.778Z,96.95
2023-01-27T06:54:02.806Z,96.85
2023-01-27T06:55:02.690Z,96.95
2023-01-27T06:56:02.761Z,97.06
2023-01-27T06:57:02.377Z,96.95
2023-01-27T06:58:02.207Z,96.95
2023-01-27T06:59:02.674Z,96.75
2023-01-27T07:00:02.564Z,96.95
2023-01-27T07:01:02.451Z,96.85
2023-01-27T07:02:03.798Z,96.64
2023-01-27T07:03:03.378Z,96.64
2023-01-27T07:04:03.215Z,96.33
2023-01-27T07:05:03.479Z,96.54
2023-01-27T07:06:03.331Z,96.64
2023-01-27T07:07:03.035Z,96.75
2023-01-27T07:08:03.201Z,96.64
2023-01-27T07:09:03.184Z,96.64
2023-01-27T07:10:03.162Z,96.64
2023-01-27T07:11:03.013Z,96.54
2023-01-27T07:12:02.617Z,96.44
2023-01-27T07:13:02.420Z,96.54
2023-01-27T07:14:03.446Z,96.64
2023-01-27T07:15:02.396Z,96.64
2023-01-27T07:16:02.983Z,96.44
2023-01-27T07:17:02.931Z,96.44
2023-01-27T07:18:02.813Z,96.75
2023-01-27T07:19:03.138Z,96.75
2023-01-27T07:20:02.761Z,96.75
2023-01-27T07:21:02.675Z,96.64
2023-01-27T07:22:02.578Z,96.54
2023-01-27T07:23:02.343Z,96.75
2023-01-27T07:24:02.836Z,96.75
2023-01-27T07:25:02.687Z,96.85
2023-01-27T07:26:04.277Z,96.75
2023-01-27T07:27:03.272Z,96.54
2023-01-27T07:28:03.521Z,96.54
2023-01-27T07:29:03.437Z,96.64
2023-01-27T07:30:03.566Z,96.95
2023-01-27T07:31:03.056Z,97.06
2023-01-27T07:32:02.724Z,96.85
2023-01-27T07:33:02.824Z,97.16
2023-01-27T07:34:02.847Z,97.16
2023-01-27T07:35:02.957Z,97.16
2023-01-27T07:36:02.905Z,97.06
2023-01-27T07:37:03.410Z,97.16
2023-01-27T07:38:03.456Z,97.26
2023-01-27T07:39:03.361Z,97.26
2023-01-27T07:40:03.183Z,97.06
2023-01-27T07:41:02.909Z,97.06
2023-01-27T07:42:02.652Z,97.16
2023-01-27T07:43:02.264Z,97.26
2023-01-27T07:44:02.402Z,97.16
2023-01-27T07:45:02.299Z,97.06
2023-01-27T07:46:02.289Z,97.26
2023-01-27T07:47:02.959Z,97.06
2023-01-27T07:48:02.770Z,96.91
2023-01-27T07:49:02.644Z,96.91
2023-01-27T07:50:02.572Z,97.01
2023-01-27T07:51:03.060Z,96.70
2023-01-27T07:52:03.344Z,96.59
2023-01-27T07:53:02.904Z,96.59
2023-01-27T07:54:03.366Z,96.08
2023-01-27T07:55:03.229Z,96.08
2023-01-27T07:56:03.424Z,95.98
2023-01-27T07:57:03.360Z,95.77
2023-01-27T07:58:03.646Z,95.67
2023-01-27T07:59:03.659Z,95.77
2023-01-27T08:00:03.401Z,95.98
2023-01-27T08:01:03.507Z,95.98
2023-01-27T08:02:03.140Z,96.08
2023-01-27T08:03:03.075Z,95.77
2023-01-27T08:04:03.196Z,95.81
2023-01-27T08:05:03.006Z,96.23
2023-01-27T08:06:02.503Z,96.54
2023-01-27T08:07:03.661Z,96.75
2023-01-27T08:08:03.341Z,96.64
2023-01-27T08:09:03.256Z,96.75
2023-01-27T08:10:03.012Z,96.95
2023-01-27T08:11:03.662Z,97.26
2023-01-27T08:12:03.057Z,97.06
2023-01-27T08:13:03.014Z,96.95
2023-01-27T08:14:02.780Z,97.06
2023-01-27T08:15:02.764Z,97.16
2023-01-27T08:16:02.698Z,97.36
2023-01-27T08:17:03.351Z,97.57
2023-01-27T08:18:02.723Z,97.47
2023-01-27T08:19:02.725Z,97.36
2023-01-27T08:20:03.274Z,97.16
2023-01-27T08:21:03.174Z,97.16
2023-01-27T08:22:02.865Z,96.95
2023-01-27T08:23:02.647Z,97.06
2023-01-27T08:24:02.846Z,97.16
2023-01-27T08:25:02.739Z,97.16
2023-01-27T08:26:02.614Z,97.26
2023-01-27T08:27:03.179Z,97.26
2023-01-27T08:28:02.829Z,97.16
2023-01-27T08:29:02.844Z,97.47
2023-01-27T08:30:02.833Z,97.53
2023-01-27T08:31:02.835Z,97.42
2023-01-27T08:32:03.465Z,97.32
2023-01-27T08:33:03.003Z,97.32
2023-01-27T08:34:03.293Z,97.01
2023-01-27T08:35:03.257Z,97.01
2023-01-27T08:36:03.266Z,97.42
2023-01-27T08:37:02.934Z,97.32
2023-01-27T08:38:02.658Z,97.42
2023-01-27T08:39:02.609Z,97.22
2023-01-27T08:40:02.445Z,96.86
2023-01-27T08:41:02.719Z,96.76
2023-01-27T08:42:03.231Z,96.86
2023-01-27T08:43:04.889Z,96.39
2023-01-27T08:44:02.921Z,96.80
2023-01-27T08:45:02.847Z,97.11
2023-01-27T08:46:02.852Z,97.17
2023-01-27T08:47:03.336Z,96.97
2023-01-27T08:48:02.987Z,96.76
2023-01-27T08:49:02.712Z,96.76
2023-01-27T08:50:03.022Z,96.66
2023-01-27T08:51:03.121Z,96.76
2023-01-27T08:52:01.975Z,96.66
2023-01-27T08:53:02.585Z,96.76
2023-01-27T08:54:02.320Z,96.76
2023-01-27T08:55:02.206Z,96.72
2023-01-27T08:56:02.112Z,96.72
2023-01-27T08:57:01.956Z,96.82
2023-01-27T08:58:01.944Z,96.92
2023-01-27T08:59:02.592Z,96.72
2023-01-27T09:00:02.357Z,96.72
2023-01-27T09:01:02.276Z,96.41
2023-01-27T09:02:02.256Z,96.41
2023-01-27T09:03:02.442Z,96.36
2023-01-27T09:04:02.358Z,96.05
2023-01-27T09:05:02.282Z,96.09
2023-01-27T09:06:02.676Z,96.51
2023-01-27T09:07:02.623Z,96.61
2023-01-27T09:08:02.946Z,96.36
2023-01-27T09:09:02.942Z,96.47
2023-01-27T09:10:15.116Z,96.56
2023-01-27T09:11:03.138Z,96.98
2023-01-27T09:12:02.804Z,96.88
2023-01-27T09:13:03.357Z,96.36
2023-01-27T09:14:02.980Z,96.05
2023-01-27T09:15:03.237Z,96.05
2023-01-27T09:16:03.255Z,95.84
2023-01-27T09:17:02.356Z,95.64
2023-01-27T09:18:02.645Z,95.43
2023-01-27T09:19:02.552Z,95.53
2023-01-27T09:20:02.468Z,94.60
2023-01-27T09:21:02.887Z,93.98
2023-01-27T09:22:02.959Z,94.09
2023-01-27T09:23:03.474Z,94.29
2023-01-27T09:24:03.447Z,93.88
2023-01-27T09:25:03.231Z,93.78
2023-01-27T09:26:03.015Z,94.09
2023-01-27T09:27:02.248Z,94.56
2023-01-27T09:28:02.334Z,94.56
2023-01-27T09:29:02.134Z,94.15
2023-01-27T09:30:02.653Z,94.67
2023-01-27T09:31:02.684Z,94.04
2023-01-27T09:32:02.441Z,94.04
2023-01-27T09:33:02.362Z,94.72
2023-01-27T09:34:02.880Z,94.52
2023-01-27T09:35:02.695Z,94.62
2023-01-27T09:36:02.865Z,94.82
2023-01-27T09:37:02.538Z,94.82
2023-01-27T09:38:02.554Z,94.82
2023-01-27T09:39:02.484Z,94.93
2023-01-27T09:40:02.426Z,94.67
2023-01-27T09:41:02.991Z,94.87
2023-01-27T09:42:02.714Z,94.72
2023-01-27T09:43:02.587Z,94.93
2023-01-27T09:44:02.577Z,94.82
2023-01-27T09:45:02.570Z,94.82
2023-01-27T09:46:02.560Z,94.31
2023-01-27T09:47:02.220Z,94.42
2023-01-27T09:48:02.212Z,94.62
2023-01-27T09:49:02.184Z,94.21
2023-01-27T09:50:02.083Z,93.18
2023-01-27T09:51:04.094Z,93.38
2023-01-27T09:52:02.432Z,93.38
2023-01-27T09:53:02.277Z,94.00
2023-01-27T09:54:02.251Z,93.90
2023-01-27T09:55:02.862Z,93.96
2023-01-27T09:56:02.735Z,94.06
2023-01-27T09:57:02.635Z,93.54
2023-01-27T09:58:02.503Z,92.82
2023-01-27T09:59:03.051Z,93.54
2023-01-27T10:00:02.593Z,93.44
2023-01-27T10:01:02.959Z,93.85
2023-01-27T10:02:02.885Z,94.06
2023-01-27T10:03:02.769Z,93.85
2023-01-27T10:04:03.305Z,93.96
2023-01-27T10:05:03.015Z,93.24
2023-01-27T10:06:02.902Z,93.34
2023-01-27T10:07:03.441Z,93.13
2023-01-27T10:08:03.378Z,93.24
2023-01-27T10:09:03.318Z,93.24
2023-01-27T10:10:03.259Z,93.65
2023-01-27T10:11:03.815Z,93.75
2023-01-27T10:12:02.764Z,93.30
2023-01-27T10:13:02.575Z,93.40
2023-01-27T10:14:03.125Z,93.30
2023-01-27T10:15:02.849Z,92.78
2023-01-27T10:16:02.630Z,91.03
2023-01-27T10:17:03.265Z,90.92
2023-01-27T10:18:03.229Z,91.54
2023-01-27T10:19:03.097Z,90.86
2023-01-27T10:20:03.164Z,90.66
2023-01-27T10:21:03.124Z,90.82
2023-01-27T10:22:02.787Z,90.00
2023-01-27T10:23:02.702Z,90.55
2023-01-27T10:24:02.719Z,91.34
2023-01-27T10:25:02.564Z,92.16
2023-01-27T10:26:03.143Z,91.13
2023-01-27T10:27:02.753Z,90.51
2023-01-27T10:28:02.692Z,90.61
2023-01-27T10:29:02.891Z,90.00
2023-01-27T10:30:02.654Z,89.69
2023-01-27T10:31:02.627Z,90.10
2023-01-27T10:32:03.313Z,90.10
2023-01-27T10:33:03.030Z,90.00
2023-01-27T10:34:03.674Z,89.38
2023-01-27T10:35:03.349Z,90.10
2023-01-27T10:36:03.212Z,91.54
2023-01-27T10:37:02.851Z,91.34
2023-01-27T10:38:02.804Z,91.96
2023-01-27T10:39:02.618Z,91.34
2023-01-27T10:40:03.157Z,92.02
2023-01-27T10:41:02.762Z,91.19
2023-01-27T10:42:03.406Z,91.50
2023-01-27T10:43:03.287Z,89.75
2023-01-27T10:44:03.421Z,87.59
2023-01-27T10:45:03.329Z,87.73
2023-01-27T10:46:03.343Z,89.38
2023-01-27T10:47:03.073Z,91.03
2023-01-27T10:48:03.014Z,91.09
2023-01-27T10:49:02.732Z,89.44
2023-01-27T10:50:03.171Z,87.73
2023-01-27T10:51:03.054Z,87.73
2023-01-27T10:52:02.729Z,88.14
2023-01-27T10:53:02.482Z,88.45
2023-01-27T10:54:02.417Z,89.17
2023-01-27T10:55:02.247Z,89.38
2023-01-27T10:56:02.865Z,87.93
2023-01-27T10:57:03.126Z,88.04
2023-01-27T10:58:02.973Z,89.38
2023-01-27T10:59:03.073Z,90.37
2023-01-27T11:00:35.717Z,90.06
2023-01-27T11:01:20.495Z,87.69
2023-01-27T11:02:02.648Z,87.48
2023-01-27T11:03:02.334Z,87.27
2023-01-27T11:04:02.329Z,87.52
2023-01-27T11:05:02.321Z,88.04
2023-01-27T11:06:02.261Z,89.03
2023-01-27T11:07:02.801Z,89.23
2023-01-27T11:08:02.773Z,90.12
2023-01-27T11:09:02.646Z,89.61
2023-01-27T11:10:02.576Z,88.57
2023-01-27T11:11:02.495Z,88.37
2023-01-27T11:12:03.023Z,88.68
2023-01-27T11:13:02.707Z,88.06
2023-01-27T11:14:02.528Z,89.09
2023-01-27T11:15:02.787Z,88.26
2023-01-27T11:16:02.976Z,86.52
2023-01-27T11:17:02.590Z,87.13
2023-01-27T11:18:02.111Z,87.85
2023-01-27T11:19:02.055Z,87.54
2023-01-27T11:20:02.567Z,88.17
2023-01-27T11:21:02.257Z,88.26
2023-01-27T11:22:08.076Z,88.47
2023-01-27T11:23:02.620Z,89.40
2023-01-27T11:24:02.556Z,88.89
2023-01-27T11:25:02.380Z,88.74
2023-01-27T11:26:02.490Z,88.74
2023-01-27T11:27:03.135Z,87.30
2023-01-27T11:28:02.803Z,86.72
2023-01-27T11:29:02.557Z,88.06
2023-01-27T11:30:03.052Z,87.24
2023-01-27T11:31:02.994Z,86.82
2023-01-27T11:32:02.659Z,86.21
2023-01-27T11:33:02.378Z,86.21
2023-01-27T11:34:02.195Z,86.10
2023-01-27T11:35:01.992Z,87.34
2023-01-27T11:36:02.534Z,87.44
2023-01-27T11:37:02.941Z,86.41
2023-01-27T11:38:14.852Z,86.00
2023-01-27T11:39:02.372Z,86.82
2023-01-27T11:40:02.816Z,87.96
2023-01-27T11:41:02.716Z,87.34
2023-01-27T11:42:01.580Z,87.85
2023-01-27T11:43:02.114Z,87.34
2023-01-27T11:44:02.037Z,85.59
2023-01-27T11:45:01.826Z,85.63
2023-01-27T11:46:01.650Z,85.83
2023-01-27T11:47:01.576Z,87.27
2023-01-27T11:48:02.149Z,87.69
2023-01-27T11:51:01.924Z,86.35
2023-01-27T11:52:01.878Z,87.07
2023-01-27T11:53:02.414Z,87.99
2023-01-27T11:54:02.214Z,88.10
2023-01-27T11:55:02.097Z,87.79
2023-01-27T11:56:01.887Z,87.59
2023-01-27T11:57:02.348Z,86.76
2023-01-27T11:58:02.915Z,86.15
2023-01-27T11:59:02.426Z,86.97
2023-01-27T12:00:02.941Z,87.44
2023-01-27T12:01:02.582Z,86.93
2023-01-27T12:02:02.385Z,86.31
2023-01-27T12:03:02.853Z,86.04
2023-01-27T12:04:02.852Z,85.73
2023-01-27T12:05:02.695Z,86.35
2023-01-27T12:06:02.626Z,86.35
2023-01-27T12:07:02.389Z,86.55
2023-01-27T12:08:03.035Z,86.97
2023-01-27T12:09:02.677Z,87.07
2023-01-27T12:10:02.566Z,86.66
2023-01-27T12:11:02.952Z,86.15
2023-01-27T12:12:02.829Z,85.94
2023-01-27T12:13:02.345Z,86.35
2023-01-27T12:14:02.126Z,86.55
2023-01-27T12:15:02.064Z,85.63
2023-01-27T12:16:02.003Z,84.80
2023-01-27T12:17:02.331Z,85.11
2023-01-27T12:18:02.880Z,85.94
2023-01-27T12:19:02.687Z,86.35
2023-01-27T12:20:02.629Z,86.15
2023-01-27T12:21:02.528Z,86.15
2023-01-27T12:22:03.068Z,86.04
2023-01-27T12:23:02.593Z,86.15
2023-01-27T12:24:02.564Z,86.04
2023-01-27T12:25:02.501Z,85.73
2023-01-27T12:26:02.573Z,86.35
2023-01-27T12:27:02.463Z,86.55
2023-01-27T12:28:02.087Z,86.24
2023-01-27T12:29:02.249Z,86.04
2023-01-27T12:30:02.175Z,85.52
2023-01-27T12:31:02.085Z,85.59
2023-01-27T12:32:02.622Z,85.49
2023-01-27T12:33:02.220Z,85.01
2023-01-27T12:34:02.157Z,85.83
2023-01-27T12:35:01.954Z,86.52
2023-01-27T12:36:02.536Z,85.69
2023-01-27T12:37:02.044Z,84.97
2023-01-27T12:38:02.478Z,84.45
2023-01-27T12:39:02.423Z,83.87
2023-01-27T12:40:03.116Z,84.59
2023-01-27T12:41:02.757Z,85.11
2023-01-27T12:42:02.737Z,84.66
2023-01-27T12:43:02.530Z,83.87
2023-01-27T12:44:02.444Z,83.98
2023-01-27T12:45:02.369Z,83.87
2023-01-27T12:46:02.849Z,84.19
2023-01-27T12:47:02.790Z,84.66
2023-01-27T12:48:02.690Z,84.77
2023-01-27T12:51:02.535Z,84.31
2023-01-27T12:52:02.496Z,84.83
2023-01-27T12:53:02.168Z,84.42
2023-01-27T12:54:01.891Z,84.83
2023-01-27T12:55:02.452Z,85.10